< < Back
Terminal Aerodrome Forecast


Current Version              Previous Versions:   1  2  3  4  5  6  7  8  9  

Terminal Aerodrome Forecast

106
FTUS42 KFFC 271548 AAB
TAFPDK
TAF AMD
KPDK 271548Z 2716/2812 17006KT P6SM BKN015
     FM271800 21006KT P6SM VCSH BKN030
     FM272000 22007KT 6SM -SHRA BR BKN035
      TEMPO 2721/2724 3SM -TSRA BKN015CB
     FM280000 20005KT P6SM BKN040
     FM280500 VRB03KT P6SM SCT020 BKN080=

Latest METAR

395
SAUS70 KWBC 280200 RRE
MTRPDK
METAR KPDK 280153Z 00000KT 9SM CLR 22/19 A3021 RMK AO2 SLP219
T02220194


USA.gov is the U.S. government's official web portal to all federal, state and local government web resources and services.